Time;durP1;ratioP1;P1;durP2;ratioP2;P2;SDS_P1;SDS_P2;PMS_P1;PMS_P2;Temp;Humidity;BMP_temperature;BMP_pressure;BME280_temperature;BME280_humidity;BME280_pressure;Samples;Min_cycle;Max_cycle;Signal;HPM_P1;HPM_P2
2022/08/13 00:02:10;;;;;;;5.03;2.65;;;19.90;99.90;;;;;;5074038;28;20533;-71
2022/08/13 00:04:37;;;;;;;4.78;2.70;;;19.80;99.90;;;;;;5076174;28;20043;-71
2022/08/13 00:07:06;;;;;;;6.68;2.97;;;19.80;99.90;;;;;;5047841;28;20075;-71
2022/08/13 00:09:33;;;;;;;10.05;3.30;;;19.70;99.90;;;;;;5046171;28;20127;-71
2022/08/13 00:14:47;;;;;;;5.20;2.80;;;19.60;99.90;;;;;;5088141;28;20084;-71
2022/08/13 00:17:15;;;;;;;4.30;2.90;;;19.60;99.90;;;;;;5065871;28;20066;-71
2022/08/13 00:19:45;;;;;;;5.47;2.90;;;19.60;99.90;;;;;;5082037;28;20044;-71
2022/08/13 00:22:12;;;;;;;4.68;3.08;;;19.60;99.90;;;;;;5094969;28;20115;-71
2022/08/13 00:24:38;;;;;;;3.60;3.10;;;19.50;99.90;;;;;;5068243;28;20044;-71
2022/08/13 00:27:05;;;;;;;5.90;3.13;;;19.50;99.90;;;;;;5084092;28;20067;-71
2022/08/13 00:29:31;;;;;;;5.93;2.92;;;19.40;99.90;;;;;;5062199;28;20055;-71
2022/08/13 00:31:57;;;;;;;6.40;3.00;;;19.30;99.90;;;;;;5066074;28;20394;-71
2022/08/13 00:34:23;;;;;;;8.18;3.03;;;19.40;99.90;;;;;;5059582;28;20043;-71
2022/08/13 00:36:48;;;;;;;6.05;3.08;;;19.30;99.90;;;;;;5078609;28;20044;-71
2022/08/13 00:39:15;;;;;;;4.75;3.30;;;19.20;99.90;;;;;;5069005;28;20434;-72
2022/08/13 00:41:45;;;;;;;4.63;3.13;;;19.20;99.90;;;;;;5076284;28;20212;-71
2022/08/13 00:44:14;;;;;;;4.22;3.50;;;19.10;99.90;;;;;;5076092;28;20048;-72
2022/08/13 00:46:41;;;;;;;5.57;3.10;;;19.10;99.90;;;;;;5062566;28;20518;-71
2022/08/13 00:49:08;;;;;;;3.72;3.40;;;19.00;99.90;;;;;;5093620;28;20076;-71
2022/08/13 00:51:36;;;;;;;5.45;3.05;;;19.00;99.90;;;;;;5076219;28;20036;-71
2022/08/13 00:54:04;;;;;;;9.43;3.17;;;19.00;99.90;;;;;;5062996;28;20028;-71
2022/08/13 00:56:34;;;;;;;4.05;2.88;;;19.00;99.90;;;;;;5059468;28;20036;-72
2022/08/13 00:59:07;;;;;;;4.28;2.95;;;18.90;99.90;;;;;;5075385;28;20676;-71
2022/08/13 01:01:35;;;;;;;3.53;2.90;;;18.80;99.90;;;;;;5081982;28;20040;-71
2022/08/13 01:04:03;;;;;;;4.60;3.30;;;18.80;99.90;;;;;;5056989;28;20040;-71
2022/08/13 01:06:30;;;;;;;8.30;3.40;;;18.70;99.90;;;;;;5040426;28;20115;-71
2022/08/13 01:08:56;;;;;;;7.40;3.00;;;18.70;99.90;;;;;;5073402;28;20044;-71
2022/08/13 01:11:23;;;;;;;4.93;2.90;;;18.60;99.90;;;;;;5049227;28;20076;-71
2022/08/13 01:13:51;;;;;;;8.95;3.00;;;18.70;99.90;;;;;;5073713;28;20044;-71
2022/08/13 01:16:18;;;;;;;6.05;3.10;;;18.60;99.90;;;;;;5092319;28;20040;-72
2022/08/13 01:18:47;;;;;;;4.63;3.20;;;18.60;99.90;;;;;;5072152;28;20040;-71
2022/08/13 01:21:15;;;;;;;7.63;3.40;;;18.60;99.90;;;;;;5075759;28;20040;-71
2022/08/13 01:23:48;;;;;;;7.07;3.28;;;18.50;99.90;;;;;;5066644;28;20079;-71
2022/08/13 01:26:16;;;;;;;7.43;3.40;;;18.50;99.90;;;;;;5065591;28;20040;-71
2022/08/13 01:28:43;;;;;;;4.45;3.03;;;18.50;99.90;;;;;;5060345;28;20094;-71
2022/08/13 01:31:11;;;;;;;9.32;3.10;;;18.50;99.90;;;;;;5082019;28;20442;-71
2022/08/13 01:33:38;;;;;;;7.72;3.70;;;18.50;99.90;;;;;;5073914;28;20040;-71
2022/08/13 01:36:05;;;;;;;7.72;3.15;;;18.50;99.90;;;;;;5093869;28;20047;-71
2022/08/13 01:38:33;;;;;;;6.35;3.15;;;18.50;99.90;;;;;;5058625;28;20032;-71
2022/08/13 01:40:59;;;;;;;3.63;2.80;;;18.50;99.90;;;;;;5031406;28;20081;-71
2022/08/13 01:43:30;;;;;;;4.07;2.80;;;18.50;99.90;;;;;;5058209;28;20041;-72
2022/08/13 01:46:00;;;;;;;4.88;3.03;;;18.50;99.90;;;;;;5093088;28;20036;-71
2022/08/13 01:51:26;;;;;;;4.60;2.88;;;18.50;99.90;;;;;;5063890;28;20136;-71
2022/08/13 01:53:54;;;;;;;5.82;3.13;;;18.50;99.90;;;;;;5055576;28;20105;-71
2022/08/13 01:56:21;;;;;;;3.42;3.00;;;18.50;99.90;;;;;;5065211;28;20052;-72
2022/08/13 01:58:52;;;;;;;3.28;2.90;;;18.50;99.90;;;;;;5086151;28;20484;-71
2022/08/13 02:01:25;;;;;;;7.90;3.50;;;18.40;99.90;;;;;;5065975;28;20076;-71
2022/08/13 02:03:51;;;;;;;;;;;18.40;99.90;;;;;;5089955;28;20048;-71
2022/08/13 02:06:25;;;;;;;3.33;2.95;;;18.40;99.90;;;;;;5049458;28;19916;-71
2022/08/13 02:08:57;;;;;;;3.58;2.80;;;18.40;99.90;;;;;;5075180;28;20498;-71
2022/08/13 02:11:23;;;;;;;4.43;3.08;;;18.30;99.90;;;;;;5050106;28;20051;-71
2022/08/13 02:13:52;;;;;;;5.68;3.05;;;18.30;99.90;;;;;;5088729;28;20036;-72
2022/08/13 02:16:18;;;;;;;5.68;2.90;;;18.30;99.90;;;;;;5074469;28;20036;-71
2022/08/13 02:18:44;;;;;;;12.85;2.60;;;18.30;99.90;;;;;;5050986;28;20119;-71
2022/08/13 02:21:11;;;;;;;3.10;2.72;;;18.30;99.90;;;;;;5078968;28;20076;-72
2022/08/13 02:23:37;;;;;;;4.95;2.53;;;18.30;99.90;;;;;;5092285;28;20029;-72
2022/08/13 02:26:06;;;;;;;4.38;2.90;;;18.20;99.90;;;;;;5075497;28;20068;-71
2022/08/13 02:28:37;;;;;;;6.03;3.17;;;18.20;99.90;;;;;;5064678;28;20062;-71
2022/08/13 02:31:03;;;;;;;8.00;3.30;;;18.20;99.90;;;;;;5068146;28;20036;-71
2022/08/13 02:33:29;;;;;;;5.53;2.90;;;18.20;99.90;;;;;;5073187;28;20067;-71
2022/08/13 02:35:55;;;;;;;4.80;2.88;;;18.20;99.90;;;;;;5063216;28;20052;-71
2022/08/13 02:38:20;;;;;;;7.82;3.20;;;18.10;99.90;;;;;;5072049;28;20036;-71
2022/08/13 02:43:31;;;;;;;6.03;3.00;;;18.10;99.90;;;;;;5042822;28;20052;-71
2022/08/13 02:46:00;;;;;;;10.73;2.88;;;18.10;99.90;;;;;;5085844;28;20040;-71
2022/08/13 02:48:29;;;;;;;6.60;3.05;;;18.10;99.90;;;;;;5068529;28;20044;-71
2022/08/13 02:50:55;;;;;;;5.47;2.53;;;18.00;99.90;;;;;;5069463;28;20035;-71
2022/08/13 02:53:23;;;;;;;5.50;2.70;;;18.00;99.90;;;;;;5074291;28;20039;-71
2022/08/13 02:55:50;;;;;;;5.05;2.88;;;18.00;99.90;;;;;;5057493;28;20070;-71
2022/08/13 02:58:17;;;;;;;5.15;2.55;;;17.90;99.90;;;;;;5082532;28;20475;-71
2022/08/13 03:00:48;;;;;;;5.95;2.78;;;17.90;99.90;;;;;;5086709;28;20083;-71
2022/08/13 03:03:14;;;;;;;6.47;2.70;;;17.90;99.90;;;;;;5062594;28;20047;-71
2022/08/13 03:05:41;;;;;;;7.95;3.10;;;17.90;99.90;;;;;;5098272;28;20115;-71
2022/08/13 03:08:07;;;;;;;7.82;2.58;;;17.90;99.90;;;;;;5047406;28;20068;-71
2022/08/13 03:10:33;;;;;;;5.55;2.88;;;17.80;99.90;;;;;;5058110;28;20040;-71
2022/08/13 03:13:03;;;;;;;4.63;2.67;;;17.80;99.90;;;;;;5068353;28;20043;-71
2022/08/13 03:15:29;;;;;;;8.18;2.80;;;17.80;99.90;;;;;;5058079;28;20340;-71
2022/08/13 03:17:55;;;;;;;4.35;2.70;;;17.70;99.90;;;;;;5093460;28;20032;-71
2022/08/13 03:20:20;;;;;;;7.35;2.80;;;17.70;99.90;;;;;;5089954;28;20403;-71
2022/08/13 03:22:54;;;;;;;3.88;2.70;;;17.70;99.90;;;;;;5088040;28;20090;-71
2022/08/13 03:25:22;;;;;;;5.88;2.65;;;17.70;99.90;;;;;;5082698;28;20044;-71
2022/08/13 03:27:48;;;;;;;6.50;2.70;;;17.70;99.90;;;;;;5078692;28;20119;-72
2022/08/13 03:30:17;;;;;;;4.55;2.80;;;17.60;99.90;;;;;;5079677;28;20039;-72
2022/08/13 03:32:45;;;;;;;5.80;2.83;;;17.60;99.90;;;;;;5082083;28;20077;-71
2022/08/13 03:35:16;;;;;;;6.63;2.70;;;17.60;99.90;;;;;;5069078;28;20490;-71
2022/08/13 03:37:45;;;;;;;4.60;2.35;;;17.50;99.90;;;;;;5092747;28;20160;-70
2022/08/13 03:40:11;;;;;;;3.88;2.75;;;17.50;99.90;;;;;;5074842;28;20039;-71
2022/08/13 03:42:40;;;;;;;5.20;2.78;;;17.50;99.90;;;;;;5086106;28;20123;-71
2022/08/13 03:45:07;;;;;;;3.38;2.60;;;17.40;99.90;;;;;;5095526;28;20043;-71
2022/08/13 03:47:33;;;;;;;4.65;2.80;;;17.40;99.90;;;;;;5113096;28;20047;-71
2022/08/13 03:50:00;;;;;;;3.05;2.60;;;17.40;99.90;;;;;;5109065;28;20039;-71
2022/08/13 03:52:30;;;;;;;8.02;2.92;;;17.40;99.90;;;;;;5100140;28;20072;-71
2022/08/13 03:54:56;;;;;;;5.38;2.90;;;17.40;99.90;;;;;;5095084;28;20036;-71
2022/08/13 03:57:22;;;;;;;7.53;2.70;;;17.40;99.90;;;;;;5094410;28;20039;-71
2022/08/13 03:59:48;;;;;;;4.35;2.90;;;17.30;99.90;;;;;;5106576;28;20043;-71
2022/08/13 04:02:16;;;;;;;5.97;2.97;;;17.20;99.90;;;;;;5086997;28;20036;-71
2022/08/13 04:04:47;;;;;;;6.45;3.13;;;17.20;99.90;;;;;;5075262;28;20044;-70
2022/08/13 04:07:19;;;;;;;4.88;2.95;;;17.20;99.90;;;;;;5105772;28;20035;-71
2022/08/13 04:09:46;;;;;;;3.72;3.15;;;17.20;99.90;;;;;;5074161;28;20078;-71
2022/08/13 04:12:13;;;;;;;4.55;3.58;;;17.20;99.90;;;;;;5087947;28;20050;-71
2022/08/13 04:14:42;;;;;;;7.45;3.70;;;17.10;99.90;;;;;;5081102;28;20051;-71
2022/08/13 04:17:10;;;;;;;6.35;4.03;;;17.20;99.90;;;;;;5082118;28;20153;-71
2022/08/13 04:19:40;;;;;;;7.40;3.30;;;17.10;99.90;;;;;;5067657;28;20040;-71
2022/08/13 04:22:07;;;;;;;7.75;3.95;;;17.20;99.90;;;;;;5056710;28;20495;-71
2022/08/13 04:24:34;;;;;;;6.22;3.55;;;17.10;99.90;;;;;;5075028;28;20538;-71
2022/08/13 04:27:00;;;;;;;4.55;3.30;;;17.10;99.90;;;;;;5057671;28;20047;-71
2022/08/13 04:29:26;;;;;;;5.47;3.20;;;17.10;99.90;;;;;;5060332;28;20446;-71
2022/08/13 04:31:52;;;;;;;6.10;3.70;;;17.10;99.90;;;;;;5074266;28;20119;-71
2022/08/13 04:34:20;;;;;;;6.93;3.88;;;17.00;99.90;;;;;;5060896;28;20119;-71
2022/08/13 04:36:45;;;;;;;6.75;4.18;;;17.00;99.90;;;;;;5062098;28;20089;-70
2022/08/13 04:39:11;;;;;;;5.00;4.50;;;17.00;99.90;;;;;;5058673;28;20055;-71
2022/08/13 04:41:36;;;;;;;7.47;4.15;;;17.00;99.90;;;;;;5062269;28;20049;-71
2022/08/13 04:44:02;;;;;;;6.45;3.78;;;17.00;99.90;;;;;;5082117;28;20052;-71
2022/08/13 04:46:28;;;;;;;5.25;3.53;;;16.90;99.90;;;;;;5057270;28;20052;-71
2022/08/13 04:48:55;;;;;;;4.53;3.90;;;16.90;99.90;;;;;;5068244;28;20048;-71
2022/08/13 04:51:20;;;;;;;5.90;3.50;;;16.90;99.90;;;;;;5081246;28;20037;-71
2022/08/13 04:53:46;;;;;;;6.47;3.58;;;16.90;99.90;;;;;;5071241;28;20057;-71
2022/08/13 04:56:12;;;;;;;12.55;3.95;;;16.90;99.90;;;;;;5083701;28;20036;-70
2022/08/13 04:58:38;;;;;;;5.82;3.33;;;16.90;99.90;;;;;;5072418;28;20173;-71
2022/08/13 05:01:10;;;;;;;9.48;4.10;;;16.90;99.90;;;;;;5082535;28;20033;-70
2022/08/13 05:03:38;;;;;;;6.90;3.60;;;16.90;99.90;;;;;;5054763;28;20071;-71
2022/08/13 05:06:05;;;;;;;5.50;3.65;;;17.00;99.90;;;;;;5061739;28;20050;-71
2022/08/13 05:08:32;;;;;;;6.03;3.78;;;17.00;99.90;;;;;;5055458;28;20528;-71
2022/08/13 05:10:59;;;;;;;6.55;3.38;;;17.00;99.90;;;;;;5062650;28;20049;-71
2022/08/13 05:13:28;;;;;;;8.52;3.47;;;17.00;99.90;;;;;;5065039;28;20043;-71
2022/08/13 05:15:56;;;;;;;5.70;3.35;;;17.10;99.90;;;;;;5062939;28;20045;-70
2022/08/13 05:18:25;;;;;;;5.43;3.33;;;17.10;99.90;;;;;;5058987;28;20055;-71
2022/08/13 05:20:54;;;;;;;4.90;3.10;;;17.10;99.90;;;;;;5063580;28;20105;-71
2022/08/13 05:23:21;;;;;;;4.28;3.20;;;17.10;99.90;;;;;;5063261;28;20044;-71
2022/08/13 05:25:48;;;;;;;5.22;3.40;;;17.20;99.90;;;;;;5061184;28;20075;-71
2022/08/13 05:28:14;;;;;;;3.67;3.03;;;17.20;99.90;;;;;;5084955;28;20089;-71
2022/08/13 05:30:40;;;;;;;6.85;3.35;;;17.20;99.90;;;;;;5053025;28;20051;-71
2022/08/13 05:33:17;;;;;;;6.55;3.25;;;17.20;99.90;;;;;;5073670;28;20036;-71
2022/08/13 05:35:45;;;;;;;6.97;3.00;;;17.30;99.90;;;;;;5073730;28;20040;-71
2022/08/13 05:38:10;;;;;;;8.32;3.35;;;17.30;99.90;;;;;;5069775;28;20040;-71
2022/08/13 05:40:38;;;;;;;6.35;3.45;;;17.30;99.90;;;;;;5059694;28;20040;-71
2022/08/13 05:43:13;;;;;;;5.70;2.90;;;17.40;99.90;;;;;;5099730;28;20085;-71
2022/08/13 05:45:41;;;;;;;8.23;2.90;;;17.50;99.90;;;;;;5066981;28;20032;-71
2022/08/13 05:48:08;;;;;;;6.43;3.17;;;17.50;99.90;;;;;;5069819;28;20134;-71
2022/08/13 05:50:34;;;;;;;6.63;3.00;;;17.50;99.90;;;;;;5076085;28;20047;-71
2022/08/13 05:53:07;;;;;;;5.72;3.20;;;17.60;99.90;;;;;;5073440;28;20093;-71
2022/08/13 05:55:38;;;;;;;4.57;3.40;;;17.60;99.90;;;;;;5076840;28;20028;-71
2022/08/13 05:58:08;;;;;;;6.63;3.28;;;17.70;99.90;;;;;;5074291;28;20036;-71
2022/08/13 06:03:39;;;;;;;5.28;3.28;;;17.80;99.90;;;;;;5063293;28;20047;-71
2022/08/13 06:06:14;;;;;;;7.20;3.13;;;17.90;99.90;;;;;;5063974;28;20090;-71
2022/08/13 06:08:43;;;;;;;6.07;3.10;;;17.90;99.90;;;;;;5059966;28;20048;-70
2022/08/13 06:11:11;;;;;;;5.47;2.92;;;18.00;99.90;;;;;;5063340;28;20060;-71
2022/08/13 06:13:38;;;;;;;6.78;3.20;;;18.00;99.90;;;;;;5069582;28;20044;-71
2022/08/13 06:16:12;;;;;;;4.35;3.33;;;18.10;99.90;;;;;;5062281;28;20051;-71
2022/08/13 06:18:43;;;;;;;7.38;3.00;;;18.20;99.90;;;;;;5081435;28;20033;-71
2022/08/13 06:21:12;;;;;;;6.47;2.92;;;18.30;99.90;;;;;;5087592;28;20175;-71
2022/08/13 06:23:39;;;;;;;10.48;2.92;;;18.30;99.90;;;;;;5062162;28;20035;-71
2022/08/13 06:26:07;;;;;;;4.75;3.15;;;18.40;99.90;;;;;;5072776;28;20040;-71
2022/08/13 06:28:35;;;;;;;5.63;2.78;;;18.40;99.90;;;;;;5067345;28;20082;-71
2022/08/13 06:31:03;;;;;;;7.90;2.83;;;18.60;99.90;;;;;;5064271;28;20046;-71
2022/08/13 06:33:31;;;;;;;8.60;2.80;;;18.60;99.90;;;;;;5065495;28;20194;-71
2022/08/13 06:36:04;;;;;;;5.07;2.78;;;18.80;99.90;;;;;;5076419;28;20039;-71
2022/08/13 06:38:36;;;;;;;3.80;2.50;;;18.90;99.90;;;;;;5076302;28;20044;-71
2022/08/13 06:41:05;;;;;;;5.78;2.67;;;19.00;99.90;;;;;;5070531;28;20145;-71
2022/08/13 06:43:35;;;;;;;4.88;2.47;;;19.00;99.90;;;;;;5082622;28;20032;-70
2022/08/13 06:46:05;;;;;;;4.05;2.30;;;19.20;99.90;;;;;;5074491;28;20071;-71
2022/08/13 06:48:33;;;;;;;2.97;2.05;;;19.30;99.90;;;;;;5058307;28;20132;-69
2022/08/13 06:50:59;;;;;;;4.72;2.17;;;19.40;99.90;;;;;;5072376;28;20096;-71
2022/08/13 06:53:25;;;;;;;3.72;2.05;;;19.60;99.90;;;;;;5072766;28;20039;-71
2022/08/13 06:55:52;;;;;;;4.88;1.73;;;19.70;99.90;;;;;;5070647;28;20044;-71
2022/08/13 06:58:25;;;;;;;5.93;2.22;;;19.80;99.90;;;;;;5075703;28;20040;-71
2022/08/13 07:00:53;;;;;;;4.57;1.90;;;20.00;99.90;;;;;;5056908;28;20116;-71
2022/08/13 07:03:19;;;;;;;2.72;1.67;;;20.20;99.90;;;;;;5075872;28;20036;-70
2022/08/13 07:05:46;;;;;;;4.45;1.70;;;20.30;99.90;;;;;;5061864;28;20605;-71
2022/08/13 07:08:12;;;;;;;2.05;1.58;;;20.40;99.90;;;;;;5065325;28;20044;-71
2022/08/13 07:10:46;;;;;;;2.95;1.70;;;20.60;99.90;;;;;;5075277;28;20533;-71
2022/08/13 07:13:12;;;;;;;5.18;1.75;;;20.70;99.90;;;;;;5055761;28;20040;-71
2022/08/13 07:15:38;;;;;;;2.03;1.60;;;20.80;99.90;;;;;;5057273;28;20040;-71
2022/08/13 07:18:06;;;;;;;4.05;1.60;;;21.00;99.90;;;;;;5067176;28;20051;-71
2022/08/13 07:20:33;;;;;;;6.80;1.50;;;21.20;99.90;;;;;;5068299;28;20044;-71
2022/08/13 07:22:59;;;;;;;3.45;1.50;;;21.30;99.90;;;;;;5064782;28;20047;-72
2022/08/13 07:25:30;;;;;;;3.58;1.45;;;21.50;99.90;;;;;;5070851;28;20413;-71
2022/08/13 07:27:59;;;;;;;6.18;1.70;;;21.70;99.90;;;;;;5064619;28;20540;-71
2022/08/13 07:30:25;;;;;;;3.17;1.70;;;21.90;99.90;;;;;;5065096;28;20487;-71
2022/08/13 07:32:52;;;;;;;3.55;1.55;;;22.10;99.90;;;;;;5082928;28;20044;-71
2022/08/13 07:35:18;;;;;;;4.22;1.40;;;22.20;99.90;;;;;;5058901;28;20507;-71
2022/08/13 07:37:45;;;;;;;5.65;1.30;;;22.30;99.90;;;;;;5064858;28;20040;-71
2022/08/13 07:40:12;;;;;;;3.03;1.35;;;22.50;99.90;;;;;;5059107;28;20376;-71
2022/08/13 07:42:39;;;;;;;6.10;1.40;;;22.70;99.90;;;;;;5067988;28;20055;-71
2022/08/13 07:45:09;;;;;;;3.17;1.50;;;22.90;99.90;;;;;;5069733;28;20127;-72
2022/08/13 07:47:38;;;;;;;3.40;1.25;;;23.10;99.90;;;;;;5074366;28;20468;-71
2022/08/13 07:50:05;;;;;;;3.08;1.30;;;23.30;99.90;;;;;;5054416;28;20087;-71
2022/08/13 07:52:32;;;;;;;2.95;1.55;;;23.50;99.90;;;;;;5068022;28;20425;-71
2022/08/13 07:55:01;;;;;;;6.28;1.40;;;23.60;99.90;;;;;;5085623;28;20063;-71
2022/08/13 07:57:29;;;;;;;2.42;1.20;;;23.80;99.60;;;;;;5065722;28;20119;-71
2022/08/13 07:59:55;;;;;;;3.92;1.30;;;24.00;99.20;;;;;;5051620;28;20484;-71
2022/08/13 08:02:27;;;;;;;2.53;1.20;;;24.20;98.00;;;;;;5066109;28;20462;-71
2022/08/13 08:04:56;;;;;;;4.13;1.23;;;24.30;97.70;;;;;;5068391;28;20437;-72
2022/08/13 08:07:25;;;;;;;2.47;1.30;;;24.50;97.40;;;;;;5081487;28;20439;-72
2022/08/13 08:09:53;;;;;;;5.72;1.30;;;24.70;96.90;;;;;;5055319;28;20406;-71
2022/08/13 08:12:35;;;;;;;6.18;1.15;;;24.80;95.90;;;;;;5072361;28;20041;-71
2022/08/13 08:15:05;;;;;;;9.63;1.23;;;25.00;94.00;;;;;;5072786;28;20044;-71
2022/08/13 08:17:31;;;;;;;2.95;1.15;;;25.20;93.70;;;;;;5070417;28;20055;-71
2022/08/13 08:19:56;;;;;;;2.00;1.10;;;25.40;93.50;;;;;;5068828;28;20486;-71
2022/08/13 08:22:23;;;;;;;4.45;1.30;;;25.50;92.10;;;;;;5064154;28;20501;-71
2022/08/13 08:24:50;;;;;;;2.42;1.13;;;25.70;92.10;;;;;;5068449;28;20076;-72
2022/08/13 08:27:17;;;;;;;3.53;1.17;;;25.80;92.30;;;;;;5064903;28;20073;-71
2022/08/13 08:29:44;;;;;;;6.90;1.23;;;25.90;91.50;;;;;;5091387;28;20042;-71
2022/08/13 08:32:12;;;;;;;4.78;1.45;;;26.10;90.30;;;;;;5074740;28;20055;-72
2022/08/13 08:34:45;;;;;;;4.72;1.20;;;26.20;87.10;;;;;;5088952;28;20039;-71
2022/08/13 08:42:55;;;;;;;8.43;1.20;;;26.80;84.50;;;;;;5062814;28;20093;-72
2022/08/13 08:45:24;;;;;;;5.70;1.10;;;27.00;81.80;;;;;;5073757;28;20048;-71
2022/08/13 08:47:52;;;;;;;8.43;1.30;;;27.10;79.10;;;;;;5073683;28;20043;-72
2022/08/13 08:50:21;;;;;;;5.07;1.20;;;27.30;79.10;;;;;;5070621;28;20043;-72
2022/08/13 08:55:36;;;;;;;6.03;0.90;;;27.60;76.50;;;;;;5074102;28;20047;-72
2022/08/13 08:58:04;;;;;;;2.45;0.98;;;27.70;77.20;;;;;;5067499;28;20036;-72
2022/08/13 09:00:31;;;;;;;3.65;1.02;;;27.80;76.90;;;;;;5064727;28;20078;-72
2022/08/13 09:02:57;;;;;;;3.10;1.20;;;28.00;75.10;;;;;;5072915;28;20048;-72
2022/08/13 09:05:25;;;;;;;2.53;0.93;;;28.10;73.20;;;;;;5061691;28;20040;-72
2022/08/13 09:07:52;;;;;;;5.50;1.00;;;28.20;71.30;;;;;;5071395;28;20044;-71
2022/08/13 09:10:21;;;;;;;4.15;1.00;;;28.40;70.50;;;;;;5090178;28;20044;-71
2022/08/13 09:12:50;;;;;;;2.25;1.00;;;28.60;68.20;;;;;;5076582;28;20046;-71
2022/08/13 09:15:21;;;;;;;3.80;1.05;;;28.70;67.50;;;;;;5073669;28;20064;-71
2022/08/13 09:17:48;;;;;;;3.25;0.95;;;28.80;66.70;;;;;;5089189;28;20555;-71
2022/08/13 09:20:17;;;;;;;1.90;0.95;;;29.00;66.70;;;;;;5073498;28;20040;-72
2022/08/13 09:22:45;;;;;;;8.70;1.20;;;29.10;65.70;;;;;;5059912;28;20069;-71
2022/08/13 09:25:14;;;;;;;5.22;1.05;;;29.20;64.30;;;;;;5087086;28;20040;-71
2022/08/13 09:27:43;;;;;;;4.78;1.20;;;29.40;63.60;;;;;;5079232;28;20063;-72
2022/08/13 09:30:10;;;;;;;2.65;0.93;;;29.60;64.10;;;;;;5081464;28;20053;-72
2022/08/13 09:32:36;;;;;;;7.97;1.02;;;29.70;63.90;;;;;;5088342;28;20114;-72
2022/08/13 09:35:05;;;;;;;4.25;1.10;;;29.80;62.80;;;;;;5089584;28;20040;-72
2022/08/13 09:37:32;;;;;;;7.68;1.35;;;29.90;58.80;;;;;;5064191;28;20105;-72
2022/08/13 09:40:05;;;;;;;5.03;1.00;;;30.00;58.60;;;;;;5094513;28;20404;-72
2022/08/13 09:43:02;;;;;;;2.55;0.80;;;30.00;60.70;;;;;;5077302;28;20086;-72
2022/08/13 09:45:30;;;;;;;4.80;1.10;;;30.20;59.80;;;;;;5058633;28;20133;-72
2022/08/13 09:47:56;;;;;;;7.60;1.27;;;30.30;57.60;;;;;;5063143;28;20072;-73
2022/08/13 09:50:25;;;;;;;4.00;1.10;;;30.40;58.70;;;;;;5077019;28;20452;-72
2022/08/13 09:52:56;;;;;;;4.70;1.00;;;30.60;56.50;;;;;;5095244;28;20039;-72
2022/08/13 09:55:25;;;;;;;2.00;1.00;;;30.70;56.70;;;;;;5073676;28;20489;-72
2022/08/13 09:57:59;;;;;;;4.43;1.00;;;30.80;55.80;;;;;;5057461;28;20491;-72
2022/08/13 10:00:27;;;;;;;4.13;0.90;;;31.00;54.40;;;;;;5070892;28;20533;-72
2022/08/13 10:02:59;;;;;;;3.00;1.08;;;31.10;52.10;;;;;;5082404;28;20487;-72
2022/08/13 10:05:28;;;;;;;3.70;1.00;;;31.20;52.10;;;;;;5070579;28;20495;-72
2022/08/13 10:07:53;;;;;;;6.13;1.02;;;31.30;51.70;;;;;;5087793;28;20497;-73
2022/08/13 10:10:20;;;;;;;3.13;0.90;;;31.50;52.50;;;;;;5056792;28;20045;-72
2022/08/13 10:12:46;;;;;;;4.45;0.90;;;31.60;51.40;;;;;;5070341;28;20620;-72
2022/08/13 10:15:13;;;;;;;1.60;0.90;;;31.80;51.30;;;;;;5093873;28;20032;-72
2022/08/13 10:17:48;;;;;;;3.47;1.00;;;32.00;51.70;;;;;;5076321;28;20122;-72
2022/08/13 10:20:19;;;;;;;2.50;0.90;;;32.10;51.20;;;;;;5069513;28;20435;-72
2022/08/13 10:22:45;;;;;;;4.03;0.95;;;32.20;48.50;;;;;;5074148;28;20036;-72
2022/08/13 10:25:12;;;;;;;4.05;0.90;;;32.40;48.40;;;;;;5072288;28;20567;-72
2022/08/13 10:27:39;;;;;;;2.33;0.80;;;32.50;47.90;;;;;;5092951;28;20040;-72
2022/08/13 10:30:05;;;;;;;5.43;0.80;;;32.60;47.80;;;;;;5080118;28;20451;-73
2022/08/13 10:32:31;;;;;;;2.22;0.98;;;32.60;48.30;;;;;;5069716;28;20434;-72
2022/08/13 10:35:00;;;;;;;3.30;0.85;;;32.80;48.50;;;;;;5063319;28;20047;-72
2022/08/13 10:37:28;;;;;;;2.10;0.90;;;32.90;48.10;;;;;;5075845;28;20114;-72
2022/08/13 10:39:58;;;;;;;2.58;1.00;;;33.00;46.60;;;;;;5081302;28;20552;-72
2022/08/13 10:42:27;;;;;;;3.92;0.93;;;33.10;48.10;;;;;;5076368;28;20509;-73
2022/08/13 10:44:52;;;;;;;5.82;0.80;;;33.20;47.60;;;;;;5080996;28;20036;-72
2022/08/13 10:47:24;;;;;;;4.93;1.13;;;33.30;46.90;;;;;;5063242;28;20097;-72
2022/08/13 10:49:53;;;;;;;3.85;1.17;;;33.50;48.20;;;;;;5059323;28;20082;-72
2022/08/13 10:52:37;;;;;;;6.05;1.00;;;33.50;47.30;;;;;;5069886;28;20071;-72
2022/08/13 10:55:24;;;;;;;1.35;1.02;;;33.70;46.40;;;;;;5086989;28;20521;-72
2022/08/13 10:58:14;;;;;;;2.78;0.88;;;33.80;45.00;;;;;;5067818;28;20416;-72
2022/08/13 11:01:03;;;;;;;2.60;0.90;;;33.90;44.20;;;;;;5068954;28;20052;-73
2022/08/13 11:03:33;;;;;;;2.40;0.90;;;33.80;44.30;;;;;;5062216;28;20043;-72
2022/08/13 11:06:04;;;;;;;1.95;1.00;;;33.90;45.70;;;;;;5059818;28;20098;-72
2022/08/13 11:08:36;;;;;;;2.83;0.85;;;34.00;44.60;;;;;;5074386;28;20406;-73
2022/08/13 11:11:03;;;;;;;3.10;1.02;;;34.00;43.80;;;;;;5063280;28;20462;-72
2022/08/13 11:13:31;;;;;;;3.05;0.90;;;34.20;46.00;;;;;;5057505;28;20544;-72
2022/08/13 11:15:58;;;;;;;4.63;1.00;;;34.00;42.10;;;;;;5073586;28;20529;-72
2022/08/13 11:18:24;;;;;;;2.45;0.98;;;34.00;44.90;;;;;;5068546;28;20486;-72
2022/08/13 11:21:02;;;;;;;7.53;1.10;;;34.10;43.50;;;;;;5075413;28;20092;-72
2022/08/13 11:23:31;;;;;;;3.72;0.80;;;34.20;44.30;;;;;;5058892;28;20761;-72
2022/08/13 11:25:57;;;;;;;4.45;1.13;;;34.30;43.10;;;;;;5073784;28;20581;-72
2022/08/13 11:28:22;;;;;;;3.00;0.80;;;34.50;43.80;;;;;;5068893;28;20131;-72
2022/08/13 11:30:50;;;;;;;4.05;1.05;;;34.70;42.30;;;;;;5054880;28;20040;-73
2022/08/13 11:33:16;;;;;;;2.83;0.98;;;34.80;43.70;;;;;;5061011;28;20062;-72
2022/08/13 11:35:43;;;;;;;2.55;0.80;;;35.00;42.50;;;;;;5081105;28;20036;-72
2022/08/13 11:38:11;;;;;;;4.95;0.88;;;35.10;43.20;;;;;;5071774;28;20045;-73
2022/08/13 11:40:38;;;;;;;1.35;0.77;;;35.00;42.10;;;;;;5092767;28;20040;-72
2022/08/13 11:43:04;;;;;;;4.97;0.90;;;34.90;41.80;;;;;;5047631;28;20052;-72
2022/08/13 11:45:30;;;;;;;1.80;0.73;;;35.00;41.50;;;;;;5068748;28;20056;-72
2022/08/13 11:47:56;;;;;;;2.22;1.08;;;35.20;39.50;;;;;;5065396;28;20536;-72
2022/08/13 11:50:21;;;;;;;2.83;0.90;;;35.30;40.30;;;;;;5071879;28;20076;-73
2022/08/13 11:52:47;;;;;;;2.72;0.80;;;35.40;40.10;;;;;;5066883;28;20036;-72
2022/08/13 11:55:13;;;;;;;2.08;0.85;;;35.40;40.30;;;;;;5067088;28;20044;-73
2022/08/13 11:57:38;;;;;;;3.05;0.93;;;35.40;40.60;;;;;;5078980;28;20036;-72
2022/08/13 12:00:06;;;;;;;1.55;0.77;;;35.50;41.50;;;;;;5074321;28;20051;-73
2022/08/13 12:02:32;;;;;;;4.28;0.90;;;35.70;41.10;;;;;;5074756;28;20048;-73
2022/08/13 12:04:57;;;;;;;3.20;0.90;;;35.70;39.00;;;;;;5080621;28;20032;-72
2022/08/13 12:07:24;;;;;;;3.95;0.88;;;35.70;38.60;;;;;;5068138;28;20042;-72
2022/08/13 12:09:50;;;;;;;4.55;0.80;;;35.60;39.10;;;;;;5072083;28;20568;-72
2022/08/13 12:12:16;;;;;;;2.88;0.80;;;35.80;41.10;;;;;;5055205;28;20041;-72
2022/08/13 12:14:41;;;;;;;1.73;0.77;;;35.90;40.40;;;;;;5066415;28;20046;-73
2022/08/13 12:17:07;;;;;;;4.00;0.80;;;35.90;40.90;;;;;;5072567;28;20036;-72
2022/08/13 12:19:34;;;;;;;2.25;0.90;;;36.00;38.70;;;;;;5074058;28;20052;-72
2022/08/13 12:22:00;;;;;;;2.42;0.70;;;36.20;39.90;;;;;;5058639;28;20055;-72
2022/08/13 12:24:27;;;;;;;3.40;0.80;;;36.40;37.50;;;;;;5064887;28;20077;-73
2022/08/13 12:26:52;;;;;;;3.53;0.70;;;36.50;38.70;;;;;;5074395;28;20092;-73
2022/08/13 12:29:18;;;;;;;4.15;0.73;;;36.60;38.40;;;;;;5081664;28;20044;-72
2022/08/13 12:31:44;;;;;;;2.22;0.95;;;36.60;38.90;;;;;;5071038;28;20033;-73
2022/08/13 12:34:09;;;;;;;1.42;0.82;;;36.70;37.90;;;;;;5064048;28;20098;-72
2022/08/13 12:36:35;;;;;;;0.75;0.70;;;36.70;38.70;;;;;;5060366;28;20044;-72
2022/08/13 12:39:01;;;;;;;1.20;0.70;;;36.90;38.30;;;;;;5077191;28;20032;-73
2022/08/13 12:41:29;;;;;;;3.08;0.77;;;36.80;36.90;;;;;;5092301;28;20122;-73
2022/08/13 12:43:55;;;;;;;2.13;0.95;;;36.60;37.20;;;;;;5062327;28;20040;-72
2022/08/13 12:46:21;;;;;;;2.00;0.70;;;36.60;37.50;;;;;;5055503;28;20094;-72
2022/08/13 12:48:46;;;;;;;2.30;0.77;;;36.50;36.60;;;;;;5070265;28;20044;-72
2022/08/13 12:51:12;;;;;;;3.33;0.75;;;36.50;36.10;;;;;;5089113;28;20040;-72
2022/08/13 12:53:38;;;;;;;0.82;0.65;;;36.40;36.80;;;;;;5070273;28;20055;-72
2022/08/13 12:56:03;;;;;;;1.42;0.70;;;36.50;38.20;;;;;;5073914;28;20040;-73
2022/08/13 12:58:29;;;;;;;3.50;0.70;;;36.70;38.00;;;;;;5055916;28;20049;-73
2022/08/13 13:00:57;;;;;;;2.58;0.90;;;36.70;37.50;;;;;;5062617;28;20043;-73
2022/08/13 13:03:26;;;;;;;3.72;0.80;;;36.80;37.60;;;;;;5069411;28;20067;-73
2022/08/13 13:05:52;;;;;;;1.20;0.60;;;36.80;37.20;;;;;;5077760;28;20131;-73
2022/08/13 13:08:21;;;;;;;3.35;0.80;;;37.00;37.40;;;;;;5070800;28;20047;-72
2022/08/13 13:10:49;;;;;;;2.17;0.90;;;37.10;36.70;;;;;;5051264;28;20037;-72
2022/08/13 13:13:17;;;;;;;3.53;0.80;;;37.20;36.30;;;;;;5065245;28;20044;-72